sensor_id;sensor_type;location;lat;lon;timestamp;temperature;humidity
7129;DHT22;3606;52.930;8.644;2023-04-06T00:00:55;-1.60;99.90
7129;DHT22;3606;52.930;8.644;2023-04-06T00:03:20;-1.70;99.90
7129;DHT22;3606;52.930;8.644;2023-04-06T00:05:47;-1.70;99.90
7129;DHT22;3606;52.930;8.644;2023-04-06T00:08:13;-1.70;99.90
7129;DHT22;3606;52.930;8.644;2023-04-06T00:10:39;-1.70;99.90
7129;DHT22;3606;52.930;8.644;2023-04-06T00:13:05;-1.70;99.90
7129;DHT22;3606;52.930;8.644;2023-04-06T00:15:31;-1.80;99.90
7129;DHT22;3606;52.930;8.644;2023-04-06T00:17:56;-1.80;99.90
7129;DHT22;3606;52.930;8.644;2023-04-06T00:20:22;-1.80;99.90
7129;DHT22;3606;52.930;8.644;2023-04-06T00:22:48;-1.80;99.90
7129;DHT22;3606;52.930;8.644;2023-04-06T00:25:13;-1.80;99.90
7129;DHT22;3606;52.930;8.644;2023-04-06T00:27:41;-1.80;99.90
7129;DHT22;3606;52.930;8.644;2023-04-06T00:30:07;-1.80;99.90
7129;DHT22;3606;52.930;8.644;2023-04-06T00:32:33;-1.90;99.90
7129;DHT22;3606;52.930;8.644;2023-04-06T00:34:59;-1.90;99.90
7129;DHT22;3606;52.930;8.644;2023-04-06T00:37:24;-1.90;99.90
7129;DHT22;3606;52.930;8.644;2023-04-06T00:39:50;-1.90;99.90
7129;DHT22;3606;52.930;8.644;2023-04-06T00:42:19;-1.80;99.90
7129;DHT22;3606;52.930;8.644;2023-04-06T00:44:52;-1.60;99.90
7129;DHT22;3606;52.930;8.644;2023-04-06T00:47:17;-1.50;99.90
7129;DHT22;3606;52.930;8.644;2023-04-06T00:49:43;-1.60;99.90
7129;DHT22;3606;52.930;8.644;2023-04-06T00:52:09;-1.60;99.90
7129;DHT22;3606;52.930;8.644;2023-04-06T00:54:34;-1.60;99.90
7129;DHT22;3606;52.930;8.644;2023-04-06T00:57:00;-1.60;99.90
7129;DHT22;3606;52.930;8.644;2023-04-06T00:59:27;-1.70;99.90
7129;DHT22;3606;52.930;8.644;2023-04-06T01:01:53;-1.80;99.90
7129;DHT22;3606;52.930;8.644;2023-04-06T01:04:18;-1.80;99.90
7129;DHT22;3606;52.930;8.644;2023-04-06T01:06:44;-1.90;99.90
7129;DHT22;3606;52.930;8.644;2023-04-06T01:09:11;-1.90;99.90
7129;DHT22;3606;52.930;8.644;2023-04-06T01:11:36;-1.90;99.90
7129;DHT22;3606;52.930;8.644;2023-04-06T01:14:03;-1.90;99.90
7129;DHT22;3606;52.930;8.644;2023-04-06T01:16:28;-1.90;99.90
7129;DHT22;3606;52.930;8.644;2023-04-06T01:18:54;-1.90;99.90
7129;DHT22;3606;52.930;8.644;2023-04-06T01:21:19;-2.00;99.90
7129;DHT22;3606;52.930;8.644;2023-04-06T01:23:45;-2.00;99.90
7129;DHT22;3606;52.930;8.644;2023-04-06T01:26:12;-1.90;99.90
7129;DHT22;3606;52.930;8.644;2023-04-06T01:28:38;-1.90;99.90
7129;DHT22;3606;52.930;8.644;2023-04-06T01:31:08;-2.00;99.90
7129;DHT22;3606;52.930;8.644;2023-04-06T01:33:34;-2.00;99.90
7129;DHT22;3606;52.930;8.644;2023-04-06T01:35:59;-2.10;99.90
7129;DHT22;3606;52.930;8.644;2023-04-06T01:38:25;-2.00;99.90
7129;DHT22;3606;52.930;8.644;2023-04-06T01:40:52;-2.00;99.90
7129;DHT22;3606;52.930;8.644;2023-04-06T01:43:17;-2.10;99.90
7129;DHT22;3606;52.930;8.644;2023-04-06T01:45:43;-2.10;99.90
7129;DHT22;3606;52.930;8.644;2023-04-06T01:48:08;-2.10;99.90
7129;DHT22;3606;52.930;8.644;2023-04-06T01:50:34;-2.10;99.90
7129;DHT22;3606;52.930;8.644;2023-04-06T01:53:00;-2.20;99.90
7129;DHT22;3606;52.930;8.644;2023-04-06T01:55:26;-2.20;99.90
7129;DHT22;3606;52.930;8.644;2023-04-06T01:57:51;-2.20;99.90
7129;DHT22;3606;52.930;8.644;2023-04-06T02:00:17;-2.30;99.90
7129;DHT22;3606;52.930;8.644;2023-04-06T02:02:43;-2.30;99.90
7129;DHT22;3606;52.930;8.644;2023-04-06T02:05:08;-2.30;99.90
7129;DHT22;3606;52.930;8.644;2023-04-06T02:07:34;-2.30;99.90
7129;DHT22;3606;52.930;8.644;2023-04-06T02:10:00;-2.30;99.90
7129;DHT22;3606;52.930;8.644;2023-04-06T02:12:25;-2.20;99.90
7129;DHT22;3606;52.930;8.644;2023-04-06T02:14:51;-2.30;99.90
7129;DHT22;3606;52.930;8.644;2023-04-06T02:17:17;-2.30;99.90
7129;DHT22;3606;52.930;8.644;2023-04-06T02:19:42;-2.30;99.90
7129;DHT22;3606;52.930;8.644;2023-04-06T02:22:09;-2.30;99.90
7129;DHT22;3606;52.930;8.644;2023-04-06T02:24:34;-2.30;99.90
7129;DHT22;3606;52.930;8.644;2023-04-06T02:27:01;-2.30;99.90
7129;DHT22;3606;52.930;8.644;2023-04-06T02:29:26;-2.30;99.90
7129;DHT22;3606;52.930;8.644;2023-04-06T02:31:52;-2.30;99.90
7129;DHT22;3606;52.930;8.644;2023-04-06T02:34:17;-2.30;99.90
7129;DHT22;3606;52.930;8.644;2023-04-06T02:36:47;-2.40;99.90
7129;DHT22;3606;52.930;8.644;2023-04-06T02:39:13;-2.40;99.90
7129;DHT22;3606;52.930;8.644;2023-04-06T02:41:39;-2.40;99.90
7129;DHT22;3606;52.930;8.644;2023-04-06T02:44:07;-2.50;99.90
7129;DHT22;3606;52.930;8.644;2023-04-06T02:46:33;-2.50;99.90
7129;DHT22;3606;52.930;8.644;2023-04-06T02:48:58;-2.50;99.90
7129;DHT22;3606;52.930;8.644;2023-04-06T02:51:26;-2.50;99.90
7129;DHT22;3606;52.930;8.644;2023-04-06T02:53:52;-2.50;99.90
7129;DHT22;3606;52.930;8.644;2023-04-06T02:56:17;-2.60;99.90
7129;DHT22;3606;52.930;8.644;2023-04-06T02:58:43;-2.60;99.90
7129;DHT22;3606;52.930;8.644;2023-04-06T03:01:09;-2.60;99.90
7129;DHT22;3606;52.930;8.644;2023-04-06T03:03:34;-2.60;99.90
7129;DHT22;3606;52.930;8.644;2023-04-06T03:06:00;-2.70;99.90
7129;DHT22;3606;52.930;8.644;2023-04-06T03:08:26;-2.70;99.90
7129;DHT22;3606;52.930;8.644;2023-04-06T03:10:51;-2.70;99.90
7129;DHT22;3606;52.930;8.644;2023-04-06T03:13:17;-2.70;99.90
7129;DHT22;3606;52.930;8.644;2023-04-06T03:15:43;-2.80;99.90
7129;DHT22;3606;52.930;8.644;2023-04-06T03:18:08;-2.80;99.90
7129;DHT22;3606;52.930;8.644;2023-04-06T03:20:34;-2.80;99.90
7129;DHT22;3606;52.930;8.644;2023-04-06T03:23:00;-2.80;99.90
7129;DHT22;3606;52.930;8.644;2023-04-06T03:25:25;-2.80;99.90
7129;DHT22;3606;52.930;8.644;2023-04-06T03:27:51;-2.90;99.90
7129;DHT22;3606;52.930;8.644;2023-04-06T03:30:17;-2.90;99.90
7129;DHT22;3606;52.930;8.644;2023-04-06T03:32:43;-2.80;99.90
7129;DHT22;3606;52.930;8.644;2023-04-06T03:35:09;-2.80;99.90
7129;DHT22;3606;52.930;8.644;2023-04-06T03:37:35;-2.80;99.90
7129;DHT22;3606;52.930;8.644;2023-04-06T03:40:01;-2.80;99.90
7129;DHT22;3606;52.930;8.644;2023-04-06T03:42:27;-2.90;99.90
7129;DHT22;3606;52.930;8.644;2023-04-06T03:44:53;-2.90;99.90
7129;DHT22;3606;52.930;8.644;2023-04-06T03:47:18;-3.00;99.90
7129;DHT22;3606;52.930;8.644;2023-04-06T03:49:44;-3.00;99.90
7129;DHT22;3606;52.930;8.644;2023-04-06T03:52:09;-3.00;99.90
7129;DHT22;3606;52.930;8.644;2023-04-06T03:54:35;-3.00;99.90
7129;DHT22;3606;52.930;8.644;2023-04-06T03:57:01;-3.00;99.90
7129;DHT22;3606;52.930;8.644;2023-04-06T03:59:27;-3.10;99.90
7129;DHT22;3606;52.930;8.644;2023-04-06T04:01:53;-3.10;99.90
7129;DHT22;3606;52.930;8.644;2023-04-06T04:04:18;-3.10;99.90
7129;DHT22;3606;52.930;8.644;2023-04-06T04:06:44;-3.10;99.90
7129;DHT22;3606;52.930;8.644;2023-04-06T04:09:09;-3.00;99.90
7129;DHT22;3606;52.930;8.644;2023-04-06T04:11:35;-3.00;99.90
7129;DHT22;3606;52.930;8.644;2023-04-06T04:14:01;-3.00;99.90
7129;DHT22;3606;52.930;8.644;2023-04-06T04:16:26;-3.00;99.90
7129;DHT22;3606;52.930;8.644;2023-04-06T04:18:52;-3.10;99.90
7129;DHT22;3606;52.930;8.644;2023-04-06T04:21:17;-3.10;99.90
7129;DHT22;3606;52.930;8.644;2023-04-06T04:23:43;-3.10;99.90
7129;DHT22;3606;52.930;8.644;2023-04-06T04:26:08;-3.20;99.90
7129;DHT22;3606;52.930;8.644;2023-04-06T04:28:34;-3.20;99.90
7129;DHT22;3606;52.930;8.644;2023-04-06T04:31:00;-3.10;99.90
7129;DHT22;3606;52.930;8.644;2023-04-06T04:33:25;-3.20;99.90
7129;DHT22;3606;52.930;8.644;2023-04-06T04:35:51;-3.20;99.90
7129;DHT22;3606;52.930;8.644;2023-04-06T04:38:17;-3.20;99.90
7129;DHT22;3606;52.930;8.644;2023-04-06T04:40:43;-3.20;99.90
7129;DHT22;3606;52.930;8.644;2023-04-06T04:43:08;-3.20;99.90
7129;DHT22;3606;52.930;8.644;2023-04-06T04:45:34;-3.20;99.90
7129;DHT22;3606;52.930;8.644;2023-04-06T04:48:00;-3.20;99.90
7129;DHT22;3606;52.930;8.644;2023-04-06T04:50:25;-3.20;99.90
7129;DHT22;3606;52.930;8.644;2023-04-06T04:52:51;-3.20;99.90
7129;DHT22;3606;52.930;8.644;2023-04-06T04:55:16;-3.10;99.90
7129;DHT22;3606;52.930;8.644;2023-04-06T04:57:43;-3.00;99.90
7129;DHT22;3606;52.930;8.644;2023-04-06T05:00:09;-3.00;99.90
7129;DHT22;3606;52.930;8.644;2023-04-06T05:02:34;-2.90;99.90
7129;DHT22;3606;52.930;8.644;2023-04-06T05:05:00;-2.80;99.90
7129;DHT22;3606;52.930;8.644;2023-04-06T05:07:26;-2.80;99.90
7129;DHT22;3606;52.930;8.644;2023-04-06T05:09:52;-2.80;99.90
7129;DHT22;3606;52.930;8.644;2023-04-06T05:12:18;-2.80;99.90
7129;DHT22;3606;52.930;8.644;2023-04-06T05:14:44;-2.80;99.90
7129;DHT22;3606;52.930;8.644;2023-04-06T05:17:10;-2.70;99.90
7129;DHT22;3606;52.930;8.644;2023-04-06T05:19:36;-2.70;99.90
7129;DHT22;3606;52.930;8.644;2023-04-06T05:22:02;-2.60;99.90
7129;DHT22;3606;52.930;8.644;2023-04-06T05:24:27;-2.60;99.90
7129;DHT22;3606;52.930;8.644;2023-04-06T05:26:53;-2.50;99.90
7129;DHT22;3606;52.930;8.644;2023-04-06T05:29:18;-2.50;99.90
7129;DHT22;3606;52.930;8.644;2023-04-06T05:31:45;-2.40;99.90
7129;DHT22;3606;52.930;8.644;2023-04-06T05:34:11;-2.30;99.90
7129;DHT22;3606;52.930;8.644;2023-04-06T05:36:38;-2.30;99.90
7129;DHT22;3606;52.930;8.644;2023-04-06T05:39:03;-2.20;99.90
7129;DHT22;3606;52.930;8.644;2023-04-06T05:41:29;-2.20;99.90
7129;DHT22;3606;52.930;8.644;2023-04-06T05:43:55;-2.10;99.90
7129;DHT22;3606;52.930;8.644;2023-04-06T05:46:20;-2.00;99.90
7129;DHT22;3606;52.930;8.644;2023-04-06T05:48:46;-1.80;99.90
7129;DHT22;3606;52.930;8.644;2023-04-06T05:51:12;-1.60;99.90
7129;DHT22;3606;52.930;8.644;2023-04-06T05:53:38;-1.30;99.90
7129;DHT22;3606;52.930;8.644;2023-04-06T05:56:03;-0.90;99.90
7129;DHT22;3606;52.930;8.644;2023-04-06T05:58:29;-0.50;99.90
7129;DHT22;3606;52.930;8.644;2023-04-06T06:00:59;-0.10;99.90
7129;DHT22;3606;52.930;8.644;2023-04-06T06:03:24;0.20;99.90
7129;DHT22;3606;52.930;8.644;2023-04-06T06:05:50;0.50;99.90
7129;DHT22;3606;52.930;8.644;2023-04-06T06:08:15;0.80;99.90
7129;DHT22;3606;52.930;8.644;2023-04-06T06:10:41;1.00;99.90
7129;DHT22;3606;52.930;8.644;2023-04-06T06:13:07;1.30;99.90
7129;DHT22;3606;52.930;8.644;2023-04-06T06:15:32;1.70;99.90
7129;DHT22;3606;52.930;8.644;2023-04-06T06:17:58;2.20;99.90
7129;DHT22;3606;52.930;8.644;2023-04-06T06:20:24;2.60;99.90
7129;DHT22;3606;52.930;8.644;2023-04-06T06:22:51;3.00;30.40
7129;DHT22;3606;52.930;8.644;2023-04-06T06:25:16;3.40;1.00
7129;DHT22;3606;52.930;8.644;2023-04-06T06:27:42;3.70;1.00
7129;DHT22;3606;52.930;8.644;2023-04-06T06:30:08;4.00;1.00
7129;DHT22;3606;52.930;8.644;2023-04-06T06:32:34;4.50;82.70
7129;DHT22;3606;52.930;8.644;2023-04-06T06:34:59;4.60;99.90
7129;DHT22;3606;52.930;8.644;2023-04-06T06:37:25;4.90;1.00
7129;DHT22;3606;52.930;8.644;2023-04-06T06:39:51;5.10;99.90
7129;DHT22;3606;52.930;8.644;2023-04-06T06:42:16;5.30;99.90
7129;DHT22;3606;52.930;8.644;2023-04-06T06:44:42;5.50;99.90
7129;DHT22;3606;52.930;8.644;2023-04-06T06:47:07;5.70;99.90
7129;DHT22;3606;52.930;8.644;2023-04-06T06:49:33;5.80;99.90
7129;DHT22;3606;52.930;8.644;2023-04-06T06:51:59;6.10;99.90
7129;DHT22;3606;52.930;8.644;2023-04-06T06:54:24;6.40;1.00
7129;DHT22;3606;52.930;8.644;2023-04-06T06:56:50;6.60;1.00
7129;DHT22;3606;52.930;8.644;2023-04-06T06:59:15;6.90;1.00
7129;DHT22;3606;52.930;8.644;2023-04-06T07:01:42;7.10;1.00
7129;DHT22;3606;52.930;8.644;2023-04-06T07:04:07;7.40;99.90
7129;DHT22;3606;52.930;8.644;2023-04-06T07:06:35;7.70;1.00
7129;DHT22;3606;52.930;8.644;2023-04-06T07:09:02;7.90;1.00
7129;DHT22;3606;52.930;8.644;2023-04-06T07:11:29;8.00;1.00
7129;DHT22;3606;52.930;8.644;2023-04-06T07:13:55;8.10;1.00
7129;DHT22;3606;52.930;8.644;2023-04-06T07:16:20;8.20;1.00
7129;DHT22;3606;52.930;8.644;2023-04-06T07:18:46;8.20;1.00
7129;DHT22;3606;52.930;8.644;2023-04-06T07:21:11;8.40;1.00
7129;DHT22;3606;52.930;8.644;2023-04-06T07:23:37;8.70;99.90
7129;DHT22;3606;52.930;8.644;2023-04-06T07:26:03;8.90;99.90
7129;DHT22;3606;52.930;8.644;2023-04-06T07:28:28;8.90;99.90
7129;DHT22;3606;52.930;8.644;2023-04-06T07:30:54;9.10;99.90
7129;DHT22;3606;52.930;8.644;2023-04-06T07:33:20;9.40;99.90
7129;DHT22;3606;52.930;8.644;2023-04-06T07:35:46;9.50;99.90
7129;DHT22;3606;52.930;8.644;2023-04-06T07:38:11;10.00;99.90
7129;DHT22;3606;52.930;8.644;2023-04-06T07:40:37;10.00;99.90
7129;DHT22;3606;52.930;8.644;2023-04-06T07:43:03;10.20;99.90
7129;DHT22;3606;52.930;8.644;2023-04-06T07:45:29;10.20;99.90
7129;DHT22;3606;52.930;8.644;2023-04-06T07:47:55;10.40;99.90
7129;DHT22;3606;52.930;8.644;2023-04-06T07:50:20;10.90;99.90
7129;DHT22;3606;52.930;8.644;2023-04-06T07:52:46;11.20;99.90
7129;DHT22;3606;52.930;8.644;2023-04-06T07:55:12;11.60;28.20
7129;DHT22;3606;52.930;8.644;2023-04-06T07:57:37;11.70;24.60
7129;DHT22;3606;52.930;8.644;2023-04-06T08:00:03;11.90;1.00
7129;DHT22;3606;52.930;8.644;2023-04-06T08:02:31;12.20;1.00
7129;DHT22;3606;52.930;8.644;2023-04-06T08:04:56;12.20;1.00
7129;DHT22;3606;52.930;8.644;2023-04-06T08:07:22;11.70;1.00
7129;DHT22;3606;52.930;8.644;2023-04-06T08:09:48;11.80;1.00
7129;DHT22;3606;52.930;8.644;2023-04-06T08:12:13;12.00;1.00
7129;DHT22;3606;52.930;8.644;2023-04-06T08:14:39;12.00;1.00
7129;DHT22;3606;52.930;8.644;2023-04-06T08:17:05;12.30;1.00
7129;DHT22;3606;52.930;8.644;2023-04-06T08:19:31;12.60;1.00
7129;DHT22;3606;52.930;8.644;2023-04-06T08:21:56;12.60;1.00
7129;DHT22;3606;52.930;8.644;2023-04-06T08:24:22;13.00;1.00
7129;DHT22;3606;52.930;8.644;2023-04-06T08:26:47;13.20;1.00
7129;DHT22;3606;52.930;8.644;2023-04-06T08:29:13;13.20;1.00
7129;DHT22;3606;52.930;8.644;2023-04-06T08:31:39;13.30;1.00
7129;DHT22;3606;52.930;8.644;2023-04-06T08:34:05;13.40;1.00
7129;DHT22;3606;52.930;8.644;2023-04-06T08:36:33;13.10;1.00
7129;DHT22;3606;52.930;8.644;2023-04-06T08:39:00;12.40;1.00
7129;DHT22;3606;52.930;8.644;2023-04-06T08:41:27;13.00;1.00
7129;DHT22;3606;52.930;8.644;2023-04-06T08:43:56;13.70;1.00
7129;DHT22;3606;52.930;8.644;2023-04-06T08:46:22;14.40;1.00
7129;DHT22;3606;52.930;8.644;2023-04-06T08:48:48;14.70;1.00
7129;DHT22;3606;52.930;8.644;2023-04-06T08:51:15;14.80;1.00
7129;DHT22;3606;52.930;8.644;2023-04-06T08:53:41;14.40;1.00
7129;DHT22;3606;52.930;8.644;2023-04-06T08:56:09;14.70;1.00
7129;DHT22;3606;52.930;8.644;2023-04-06T08:58:39;14.90;1.00
7129;DHT22;3606;52.930;8.644;2023-04-06T09:01:11;14.90;1.00
7129;DHT22;3606;52.930;8.644;2023-04-06T09:03:38;14.80;1.00
7129;DHT22;3606;52.930;8.644;2023-04-06T09:06:07;15.00;1.00
7129;DHT22;3606;52.930;8.644;2023-04-06T09:08:34;15.50;1.00
7129;DHT22;3606;52.930;8.644;2023-04-06T09:11:01;15.40;1.00
7129;DHT22;3606;52.930;8.644;2023-04-06T09:13:27;14.90;1.00
7129;DHT22;3606;52.930;8.644;2023-04-06T09:16:03;14.60;1.00
7129;DHT22;3606;52.930;8.644;2023-04-06T09:18:33;14.70;1.00
7129;DHT22;3606;52.930;8.644;2023-04-06T09:20:59;14.70;1.00
7129;DHT22;3606;52.930;8.644;2023-04-06T09:23:26;14.20;1.00
7129;DHT22;3606;52.930;8.644;2023-04-06T09:25:51;14.60;1.00
7129;DHT22;3606;52.930;8.644;2023-04-06T09:28:17;14.90;1.00
7129;DHT22;3606;52.930;8.644;2023-04-06T09:30:49;15.50;1.00
7129;DHT22;3606;52.930;8.644;2023-04-06T09:33:22;16.00;1.00
7129;DHT22;3606;52.930;8.644;2023-04-06T09:35:51;15.90;1.00
7129;DHT22;3606;52.930;8.644;2023-04-06T09:38:17;16.00;1.00
7129;DHT22;3606;52.930;8.644;2023-04-06T09:40:50;16.10;1.00
7129;DHT22;3606;52.930;8.644;2023-04-06T09:43:26;16.80;1.00
7129;DHT22;3606;52.930;8.644;2023-04-06T09:45:52;17.20;1.00
7129;DHT22;3606;52.930;8.644;2023-04-06T09:48:20;17.30;1.00
7129;DHT22;3606;52.930;8.644;2023-04-06T09:50:49;17.10;1.00
7129;DHT22;3606;52.930;8.644;2023-04-06T09:53:17;17.40;1.00
7129;DHT22;3606;52.930;8.644;2023-04-06T09:55:48;18.10;1.00
7129;DHT22;3606;52.930;8.644;2023-04-06T09:58:16;18.30;1.00
7129;DHT22;3606;52.930;8.644;2023-04-06T10:01:04;18.00;99.90
7129;DHT22;3606;52.930;8.644;2023-04-06T10:03:40;17.90;99.90
7129;DHT22;3606;52.930;8.644;2023-04-06T10:06:13;17.70;99.90
7129;DHT22;3606;52.930;8.644;2023-04-06T10:08:40;18.00;99.90
7129;DHT22;3606;52.930;8.644;2023-04-06T10:11:10;18.30;99.90
7129;DHT22;3606;52.930;8.644;2023-04-06T10:13:37;18.60;99.90
7129;DHT22;3606;52.930;8.644;2023-04-06T10:16:02;18.60;99.90
7129;DHT22;3606;52.930;8.644;2023-04-06T10:18:29;18.20;99.90
7129;DHT22;3606;52.930;8.644;2023-04-06T10:21:00;17.80;99.90
7129;DHT22;3606;52.930;8.644;2023-04-06T10:23:33;17.70;99.90
7129;DHT22;3606;52.930;8.644;2023-04-06T10:26:01;18.10;99.90
7129;DHT22;3606;52.930;8.644;2023-04-06T10:28:32;17.90;99.90
7129;DHT22;3606;52.930;8.644;2023-04-06T10:30:59;18.10;99.90
7129;DHT22;3606;52.930;8.644;2023-04-06T10:33:27;18.50;99.90
7129;DHT22;3606;52.930;8.644;2023-04-06T10:35:53;18.10;99.90
7129;DHT22;3606;52.930;8.644;2023-04-06T10:38:20;18.00;99.90
7129;DHT22;3606;52.930;8.644;2023-04-06T10:40:47;18.40;99.90
7129;DHT22;3606;52.930;8.644;2023-04-06T10:43:19;18.50;99.90
7129;DHT22;3606;52.930;8.644;2023-04-06T10:45:45;18.30;99.90
7129;DHT22;3606;52.930;8.644;2023-04-06T10:48:18;18.40;99.90
7129;DHT22;3606;52.930;8.644;2023-04-06T10:50:53;18.90;99.90
7129;DHT22;3606;52.930;8.644;2023-04-06T10:53:25;19.20;99.90
7129;DHT22;3606;52.930;8.644;2023-04-06T10:55:54;19.70;99.90
7129;DHT22;3606;52.930;8.644;2023-04-06T10:58:24;19.80;99.90
7129;DHT22;3606;52.930;8.644;2023-04-06T11:00:50;19.50;99.90
7129;DHT22;3606;52.930;8.644;2023-04-06T11:03:16;19.50;99.90
7129;DHT22;3606;52.930;8.644;2023-04-06T11:05:49;19.80;99.90
7129;DHT22;3606;52.930;8.644;2023-04-06T11:08:31;19.70;99.90
7129;DHT22;3606;52.930;8.644;2023-04-06T11:11:05;18.90;99.90
7129;DHT22;3606;52.930;8.644;2023-04-06T11:13:41;19.60;99.90
7129;DHT22;3606;52.930;8.644;2023-04-06T11:16:12;19.80;99.90
7129;DHT22;3606;52.930;8.644;2023-04-06T11:18:46;20.00;99.90
7129;DHT22;3606;52.930;8.644;2023-04-06T11:21:11;19.60;99.90
7129;DHT22;3606;52.930;8.644;2023-04-06T11:23:37;19.60;99.90
7129;DHT22;3606;52.930;8.644;2023-04-06T11:26:03;19.60;99.90
7129;DHT22;3606;52.930;8.644;2023-04-06T11:28:29;19.30;99.90
7129;DHT22;3606;52.930;8.644;2023-04-06T11:30:55;19.80;99.90
7129;DHT22;3606;52.930;8.644;2023-04-06T11:33:21;19.70;99.90
7129;DHT22;3606;52.930;8.644;2023-04-06T11:35:50;18.90;99.90
7129;DHT22;3606;52.930;8.644;2023-04-06T11:38:18;17.90;99.90
7129;DHT22;3606;52.930;8.644;2023-04-06T11:40:45;17.40;99.90
7129;DHT22;3606;52.930;8.644;2023-04-06T11:43:11;17.40;99.90
7129;DHT22;3606;52.930;8.644;2023-04-06T11:45:43;17.70;99.90
7129;DHT22;3606;52.930;8.644;2023-04-06T11:48:18;18.10;99.90
7129;DHT22;3606;52.930;8.644;2023-04-06T11:50:46;18.20;99.90
7129;DHT22;3606;52.930;8.644;2023-04-06T11:53:13;17.90;99.90
7129;DHT22;3606;52.930;8.644;2023-04-06T11:55:38;17.50;99.90
7129;DHT22;3606;52.930;8.644;2023-04-06T11:58:04;17.50;99.90
7129;DHT22;3606;52.930;8.644;2023-04-06T12:00:30;17.80;99.90
7129;DHT22;3606;52.930;8.644;2023-04-06T12:03:00;17.60;99.90
7129;DHT22;3606;52.930;8.644;2023-04-06T12:05:26;17.30;99.90
7129;DHT22;3606;52.930;8.644;2023-04-06T12:07:51;17.00;99.90
7129;DHT22;3606;52.930;8.644;2023-04-06T12:10:17;17.20;99.90
7129;DHT22;3606;52.930;8.644;2023-04-06T12:12:43;17.40;99.90
7129;DHT22;3606;52.930;8.644;2023-04-06T12:15:09;16.80;99.90
7129;DHT22;3606;52.930;8.644;2023-04-06T12:17:34;16.80;99.90
7129;DHT22;3606;52.930;8.644;2023-04-06T12:20:00;16.80;99.90
7129;DHT22;3606;52.930;8.644;2023-04-06T12:22:26;16.90;99.90
7129;DHT22;3606;52.930;8.644;2023-04-06T12:24:51;17.00;99.90
7129;DHT22;3606;52.930;8.644;2023-04-06T12:27:17;17.00;99.90
7129;DHT22;3606;52.930;8.644;2023-04-06T12:29:43;17.00;99.90
7129;DHT22;3606;52.930;8.644;2023-04-06T12:32:08;17.10;99.90
7129;DHT22;3606;52.930;8.644;2023-04-06T12:34:34;17.40;99.90
7129;DHT22;3606;52.930;8.644;2023-04-06T12:37:00;17.10;99.90
7129;DHT22;3606;52.930;8.644;2023-04-06T12:39:27;17.00;99.90
7129;DHT22;3606;52.930;8.644;2023-04-06T12:41:53;17.00;99.90
7129;DHT22;3606;52.930;8.644;2023-04-06T12:44:18;17.30;99.90
7129;DHT22;3606;52.930;8.644;2023-04-06T12:46:44;17.10;99.90
7129;DHT22;3606;52.930;8.644;2023-04-06T12:49:10;17.40;99.90
7129;DHT22;3606;52.930;8.644;2023-04-06T12:51:36;18.00;99.90
7129;DHT22;3606;52.930;8.644;2023-04-06T12:54:02;17.80;99.90
7129;DHT22;3606;52.930;8.644;2023-04-06T12:56:27;18.00;99.90
7129;DHT22;3606;52.930;8.644;2023-04-06T12:58:53;18.40;99.90
7129;DHT22;3606;52.930;8.644;2023-04-06T13:01:18;18.70;99.90
7129;DHT22;3606;52.930;8.644;2023-04-06T13:03:45;18.90;99.90
7129;DHT22;3606;52.930;8.644;2023-04-06T13:06:10;18.80;99.90
7129;DHT22;3606;52.930;8.644;2023-04-06T13:08:37;19.10;99.90
7129;DHT22;3606;52.930;8.644;2023-04-06T13:11:03;19.50;99.90
7129;DHT22;3606;52.930;8.644;2023-04-06T13:13:29;20.00;99.90
7129;DHT22;3606;52.930;8.644;2023-04-06T13:16:00;20.60;99.90
7129;DHT22;3606;52.930;8.644;2023-04-06T13:18:29;20.70;99.90
7129;DHT22;3606;52.930;8.644;2023-04-06T13:20:58;20.80;99.90
7129;DHT22;3606;52.930;8.644;2023-04-06T13:23:25;20.40;99.90
7129;DHT22;3606;52.930;8.644;2023-04-06T13:26:03;20.60;99.90
7129;DHT22;3606;52.930;8.644;2023-04-06T13:28:30;21.30;99.90
7129;DHT22;3606;52.930;8.644;2023-04-06T13:30:58;21.80;99.90
7129;DHT22;3606;52.930;8.644;2023-04-06T13:33:24;22.00;99.90
7129;DHT22;3606;52.930;8.644;2023-04-06T13:35:50;22.60;99.90
7129;DHT22;3606;52.930;8.644;2023-04-06T13:38:15;22.20;99.90
7129;DHT22;3606;52.930;8.644;2023-04-06T13:40:42;22.40;99.90
7129;DHT22;3606;52.930;8.644;2023-04-06T13:43:07;21.90;99.90
7129;DHT22;3606;52.930;8.644;2023-04-06T13:45:33;21.20;99.90
7129;DHT22;3606;52.930;8.644;2023-04-06T13:47:59;21.10;99.90
7129;DHT22;3606;52.930;8.644;2023-04-06T13:50:28;21.30;99.90
7129;DHT22;3606;52.930;8.644;2023-04-06T13:52:54;22.50;99.90
7129;DHT22;3606;52.930;8.644;2023-04-06T13:55:20;22.20;99.90
7129;DHT22;3606;52.930;8.644;2023-04-06T13:57:45;21.20;99.90
7129;DHT22;3606;52.930;8.644;2023-04-06T14:00:11;21.30;99.90
7129;DHT22;3606;52.930;8.644;2023-04-06T14:02:39;21.80;99.90
7129;DHT22;3606;52.930;8.644;2023-04-06T14:05:05;21.60;99.90
7129;DHT22;3606;52.930;8.644;2023-04-06T14:07:30;20.70;99.90
7129;DHT22;3606;52.930;8.644;2023-04-06T14:09:56;20.70;99.90
7129;DHT22;3606;52.930;8.644;2023-04-06T14:12:22;20.10;99.90
7129;DHT22;3606;52.930;8.644;2023-04-06T14:14:47;19.50;99.90
7129;DHT22;3606;52.930;8.644;2023-04-06T14:17:13;20.00;99.90
7129;DHT22;3606;52.930;8.644;2023-04-06T14:19:38;19.50;99.90
7129;DHT22;3606;52.930;8.644;2023-04-06T14:22:04;18.90;99.90
7129;DHT22;3606;52.930;8.644;2023-04-06T14:24:30;19.00;99.90
7129;DHT22;3606;52.930;8.644;2023-04-06T14:26:56;18.90;99.90
7129;DHT22;3606;52.930;8.644;2023-04-06T14:29:22;18.20;99.90
7129;DHT22;3606;52.930;8.644;2023-04-06T14:31:48;18.00;99.90
7129;DHT22;3606;52.930;8.644;2023-04-06T14:34:14;18.10;99.90
7129;DHT22;3606;52.930;8.644;2023-04-06T14:36:41;18.10;99.90
7129;DHT22;3606;52.930;8.644;2023-04-06T14:39:07;17.90;99.90
7129;DHT22;3606;52.930;8.644;2023-04-06T14:41:34;17.40;99.90
7129;DHT22;3606;52.930;8.644;2023-04-06T14:44:00;17.30;99.90
7129;DHT22;3606;52.930;8.644;2023-04-06T14:46:26;17.10;99.90
7129;DHT22;3606;52.930;8.644;2023-04-06T14:48:55;17.10;99.90
7129;DHT22;3606;52.930;8.644;2023-04-06T14:51:21;17.20;99.90
7129;DHT22;3606;52.930;8.644;2023-04-06T14:53:47;16.80;99.90
7129;DHT22;3606;52.930;8.644;2023-04-06T14:56:12;16.90;99.90
7129;DHT22;3606;52.930;8.644;2023-04-06T14:58:38;17.20;99.90
7129;DHT22;3606;52.930;8.644;2023-04-06T15:01:04;17.40;99.90
7129;DHT22;3606;52.930;8.644;2023-04-06T15:03:31;17.70;99.90
7129;DHT22;3606;52.930;8.644;2023-04-06T15:05:57;17.50;99.90
7129;DHT22;3606;52.930;8.644;2023-04-06T15:08:23;17.20;99.90
7129;DHT22;3606;52.930;8.644;2023-04-06T15:10:50;17.00;99.90
7129;DHT22;3606;52.930;8.644;2023-04-06T15:13:16;17.10;99.90
7129;DHT22;3606;52.930;8.644;2023-04-06T15:15:42;17.80;99.90
7129;DHT22;3606;52.930;8.644;2023-04-06T15:18:09;17.70;99.90
7129;DHT22;3606;52.930;8.644;2023-04-06T15:20:34;17.50;99.90
7129;DHT22;3606;52.930;8.644;2023-04-06T15:23:01;17.00;99.90
7129;DHT22;3606;52.930;8.644;2023-04-06T15:25:27;16.70;99.90
7129;DHT22;3606;52.930;8.644;2023-04-06T15:27:56;17.00;99.90
7129;DHT22;3606;52.930;8.644;2023-04-06T15:30:22;17.50;99.90
7129;DHT22;3606;52.930;8.644;2023-04-06T15:32:54;17.10;99.90
7129;DHT22;3606;52.930;8.644;2023-04-06T15:35:20;16.60;99.90
7129;DHT22;3606;52.930;8.644;2023-04-06T15:37:46;16.10;99.90
7129;DHT22;3606;52.930;8.644;2023-04-06T15:40:11;15.60;99.90
7129;DHT22;3606;52.930;8.644;2023-04-06T15:42:39;15.40;99.90
7129;DHT22;3606;52.930;8.644;2023-04-06T15:45:05;15.30;99.90
7129;DHT22;3606;52.930;8.644;2023-04-06T15:47:31;15.20;99.90
7129;DHT22;3606;52.930;8.644;2023-04-06T15:49:57;14.90;99.90
7129;DHT22;3606;52.930;8.644;2023-04-06T15:52:23;14.80;99.90
7129;DHT22;3606;52.930;8.644;2023-04-06T15:54:49;14.60;99.90
7129;DHT22;3606;52.930;8.644;2023-04-06T15:57:15;14.50;99.90
7129;DHT22;3606;52.930;8.644;2023-04-06T15:59:40;14.50;99.90